Time;durP1;ratioP1;P1;durP2;ratioP2;P2;SDS_P1;SDS_P2;PMS_P1;PMS_P2;Temp;Humidity;BMP_temperature;BMP_pressure;BME280_temperature;BME280_humidity;BME280_pressure;Samples;Min_cycle;Max_cycle;Signal;HPM_P1;HPM_P2
2023/02/11 00:01:18;;;;;;;17.70;9.05;;;;;;;;;;4912801;29;20384;-76
2023/02/11 00:03:44;;;;;;;12.10;9.80;;;;;;;;;;4895877;29;20039;-76
2023/02/11 00:06:10;;;;;;;15.32;8.18;;;;;;;;;;4911315;29;20407;-77
2023/02/11 00:08:37;;;;;;;11.82;10.38;;;;;;;;;;4863118;29;20066;-77
2023/02/11 00:11:03;;;;;;;11.63;9.43;;;;;;;;;;4895989;29;20050;-76
2023/02/11 00:13:29;;;;;;;15.30;9.02;;;;;;;;;;4910226;29;20039;-76
2023/02/11 00:15:55;;;;;;;19.90;10.68;;;;;;;;;;4895276;29;20168;-76
2023/02/11 00:18:21;;;;;;;18.25;7.95;;;;;;;;;;4893959;29;20094;-77
2023/02/11 00:20:46;;;;;;;19.85;10.95;;;;;;;;;;4910621;29;20208;-76
2023/02/11 00:23:13;;;;;;;11.15;8.32;;;;;;;;;;4890158;29;20573;-76
2023/02/11 00:25:39;;;;;;;11.48;7.10;;;;;;;;;;4910930;29;20046;-77
2023/02/11 00:28:05;;;;;;;8.30;7.45;;;;;;;;;;4878415;29;20466;-78
2023/02/11 00:30:32;;;;;;;11.55;9.15;;;;;;;;;;4910610;29;20546;-77
2023/02/11 00:32:58;;;;;;;13.75;7.68;;;;;;;;;;4894672;29;20585;-77
2023/02/11 00:35:24;;;;;;;10.50;7.45;;;;;;;;;;4877229;29;21567;-77
2023/02/11 00:37:52;;;;;;;13.40;8.88;;;;;;;;;;4886820;29;20042;-77
2023/02/11 00:40:18;;;;;;;7.35;6.35;;;;;;;;;;4911209;29;20094;-76
2023/02/11 00:42:44;;;;;;;13.55;7.72;;;;;;;;;;4910679;29;20522;-76
2023/02/11 00:45:10;;;;;;;12.02;8.20;;;;;;;;;;4910557;29;20028;-76
2023/02/11 00:47:36;;;;;;;9.82;8.73;;;;;;;;;;4910075;29;20050;-76
2023/02/11 00:50:04;;;;;;;6.47;5.80;;;;;;;;;;4910583;29;20052;-76
2023/02/11 00:52:33;;;;;;;11.25;7.60;;;;;;;;;;4910867;29;20074;-77
2023/02/11 00:54:59;;;;;;;11.45;7.85;;;;;;;;;;4910624;29;20032;-77
2023/02/11 00:57:25;;;;;;;17.17;9.02;;;;;;;;;;4901150;29;20056;-77
2023/02/11 00:59:51;;;;;;;11.88;7.10;;;;;;;;;;4902672;29;20043;-76
2023/02/11 01:02:18;;;;;;;12.02;8.10;;;;;;;;;;4901012;29;20042;-77
2023/02/11 01:04:43;;;;;;;12.65;8.45;;;;;;;;;;4909911;29;20609;-77
2023/02/11 01:07:09;;;;;;;9.00;7.35;;;;;;;;;;4908046;29;20251;-77
2023/02/11 01:09:37;;;;;;;12.50;7.93;;;;;;;;;;4889401;29;20047;-77
2023/02/11 01:12:05;;;;;;;11.35;8.55;;;;;;;;;;4901063;29;20052;-77
2023/02/11 01:14:31;;;;;;;15.95;11.05;;;;;;;;;;4910325;29;20040;-77
2023/02/11 01:16:57;;;;;;;9.55;6.70;;;;;;;;;;4892931;29;20507;-78
2023/02/11 01:19:23;;;;;;;12.52;9.02;;;;;;;;;;4892490;29;20115;-77
2023/02/11 01:21:50;;;;;;;15.30;6.60;;;;;;;;;;4891878;29;20038;-77
2023/02/11 01:24:16;;;;;;;7.30;5.55;;;;;;;;;;4893663;29;20604;-76
2023/02/11 01:26:43;;;;;;;10.77;7.32;;;;;;;;;;4909610;29;20241;-77
2023/02/11 01:29:09;;;;;;;10.32;6.55;;;;;;;;;;4906862;29;20097;-76
2023/02/11 01:31:35;;;;;;;9.55;6.45;;;;;;;;;;4892636;29;20066;-77
2023/02/11 01:34:01;;;;;;;10.98;7.57;;;;;;;;;;4886041;29;20220;-76
2023/02/11 01:36:28;;;;;;;10.02;6.30;;;;;;;;;;4914183;29;20031;-77
2023/02/11 01:38:54;;;;;;;12.38;8.43;;;;;;;;;;4914178;29;20554;-76
2023/02/11 01:41:20;;;;;;;10.02;6.80;;;;;;;;;;4896650;29;20126;-76
2023/02/11 01:43:47;;;;;;;12.63;8.43;;;;;;;;;;4896288;29;20063;-76
2023/02/11 01:46:17;;;;;;;12.88;7.35;;;;;;;;;;4913168;29;20062;-77
2023/02/11 01:48:44;;;;;;;15.13;7.95;;;;;;;;;;4891322;29;20032;-77
2023/02/11 01:51:12;;;;;;;13.20;8.65;;;;;;;;;;4888781;29;20108;-76
2023/02/11 01:59:12;;;;;;;11.95;6.93;;;;;;;;;;4903569;29;20574;-75
2023/02/11 02:01:38;;;;;;;12.25;7.82;;;;;;;;;;4895671;29;20047;-76
2023/02/11 02:04:04;;;;;;;12.85;7.88;;;;;;;;;;4879870;29;20036;-76
2023/02/11 02:06:35;;;;;;;10.23;6.72;;;;;;;;;;4896915;29;20396;-77
2023/02/11 02:09:03;;;;;;;7.95;5.13;;;;;;;;;;4883453;29;20775;-78
2023/02/11 02:11:29;;;;;;;8.52;7.57;;;;;;;;;;4889131;29;22141;-76
2023/02/11 02:13:55;;;;;;;10.45;6.32;;;;;;;;;;4883036;29;20166;-76
2023/02/11 02:16:21;;;;;;;9.30;7.18;;;;;;;;;;4912981;29;20060;-76
2023/02/11 02:18:50;;;;;;;8.82;3.95;;;;;;;;;;4896174;29;20036;-77
2023/02/11 02:21:35;;;;;;;7.22;6.47;;;;;;;;;;4913637;29;20051;-78
2023/02/11 02:24:07;;;;;;;9.70;7.53;;;;;;;;;;4903311;29;20035;-78
2023/02/11 02:26:44;;;;;;;8.18;5.85;;;;;;;;;;4896660;29;20039;-78
2023/02/11 02:29:17;;;;;;;14.73;7.35;;;;;;;;;;4913528;29;20039;-76
2023/02/11 02:32:02;;;;;;;10.55;7.25;;;;;;;;;;4914171;29;20055;-77
2023/02/11 02:34:43;;;;;;;5.80;5.20;;;;;;;;;;4903218;29;20043;-78
2023/02/11 02:37:09;;;;;;;;;;;;;;;;;;4890704;29;20432;-77
2023/02/11 02:39:35;;;;;;;7.38;5.45;;;;;;;;;;4896830;29;19978;-77
2023/02/11 02:42:01;;;;;;;5.70;4.80;;;;;;;;;;4895822;29;20058;-77
2023/02/11 02:44:27;;;;;;;5.57;4.57;;;;;;;;;;4911251;29;20047;-78
2023/02/11 02:46:53;;;;;;;7.97;5.93;;;;;;;;;;4913278;29;20048;-77
2023/02/11 02:49:20;;;;;;;13.13;9.00;;;;;;;;;;4914636;29;20799;-77
2023/02/11 02:51:50;;;;;;;6.35;5.38;;;;;;;;;;4914106;29;20178;-78
2023/02/11 02:54:39;;;;;;;8.73;6.33;;;;;;;;;;4910417;29;21516;-78
2023/02/11 02:57:07;;;;;;;5.32;4.82;;;;;;;;;;4885875;29;20299;-77
2023/02/11 02:59:33;;;;;;;5.00;4.50;;;;;;;;;;4910110;29;20042;-78
2023/02/11 03:02:05;;;;;;;13.40;6.50;;;;;;;;;;4913715;29;20039;-77
2023/02/11 03:04:36;;;;;;;9.43;6.82;;;;;;;;;;4914046;29;20044;-76
2023/02/11 03:07:04;;;;;;;10.40;8.35;;;;;;;;;;4897444;29;20196;-76
2023/02/11 03:10:00;;;;;;;11.90;5.88;;;;;;;;;;4882274;29;20101;-76
2023/02/11 03:12:26;;;;;;;14.15;8.55;;;;;;;;;;4902598;29;20052;-77
2023/02/11 03:14:52;;;;;;;9.23;6.57;;;;;;;;;;4882199;29;20046;-78
2023/02/11 03:17:18;;;;;;;8.82;5.32;;;;;;;;;;4913578;29;20031;-76
2023/02/11 03:19:45;;;;;;;9.30;5.88;;;;;;;;;;4886533;29;20162;-77
2023/02/11 03:22:37;;;;;;;7.30;5.82;;;;;;;;;;4922399;29;20118;-76
2023/02/11 03:25:03;;;;;;;8.70;6.07;;;;;;;;;;4899852;29;20058;-78
2023/02/11 03:27:30;;;;;;;8.73;4.55;;;;;;;;;;4914458;29;20051;-77
2023/02/11 03:30:02;;;;;;;5.63;4.82;;;;;;;;;;4896758;29;20043;-77
2023/02/11 03:32:31;;;;;;;5.22;4.75;;;;;;;;;;4897646;29;20036;-76
2023/02/11 03:35:09;;;;;;;8.73;5.30;;;;;;;;;;4900678;29;20304;-77
2023/02/11 03:37:38;;;;;;;10.60;5.72;;;;;;;;;;4887239;29;20167;-78
2023/02/11 03:40:12;;;;;;;5.10;3.63;;;;;;;;;;4895524;29;20407;-77
2023/02/11 03:42:40;;;;;;;9.35;4.85;;;;;;;;;;4904661;29;20066;-77
2023/02/11 03:45:07;;;;;;;6.65;4.85;;;;;;;;;;4896852;29;20078;-76
2023/02/11 03:47:34;;;;;;;7.00;4.95;;;;;;;;;;4881558;29;20313;-76
2023/02/11 03:50:01;;;;;;;5.35;4.60;;;;;;;;;;4898968;29;20146;-76
2023/02/11 03:52:28;;;;;;;6.70;4.55;;;;;;;;;;4914048;29;20035;-77
2023/02/11 03:54:55;;;;;;;6.45;4.93;;;;;;;;;;4896562;29;20546;-77
2023/02/11 03:57:21;;;;;;;8.50;5.00;;;;;;;;;;4894953;29;20063;-77
2023/02/11 03:59:57;;;;;;;6.38;5.70;;;;;;;;;;4896579;29;20040;-77
2023/02/11 04:02:24;;;;;;;5.55;4.47;;;;;;;;;;4896546;29;20189;-76
2023/02/11 04:04:50;;;;;;;10.57;5.90;;;;;;;;;;4903388;29;20039;-77
2023/02/11 04:07:16;;;;;;;5.65;4.43;;;;;;;;;;4880530;29;20055;-77
2023/02/11 04:09:42;;;;;;;10.90;5.78;;;;;;;;;;4913409;29;20139;-77
2023/02/11 04:12:08;;;;;;;4.60;4.10;;;;;;;;;;4902091;29;20047;-76
2023/02/11 04:14:35;;;;;;;6.80;4.32;;;;;;;;;;4903934;29;20541;-75
2023/02/11 04:17:01;;;;;;;9.05;4.82;;;;;;;;;;4880842;29;20189;-76
2023/02/11 04:19:27;;;;;;;5.55;4.57;;;;;;;;;;4914236;29;20032;-78
2023/02/11 04:21:53;;;;;;;5.82;4.00;;;;;;;;;;4895888;29;20039;-78
2023/02/11 04:24:19;;;;;;;7.75;4.05;;;;;;;;;;4912172;29;20034;-78
2023/02/11 04:26:45;;;;;;;13.88;6.30;;;;;;;;;;4897454;29;20035;-78
2023/02/11 04:29:11;;;;;;;4.35;3.70;;;;;;;;;;4895497;29;20039;-78
2023/02/11 04:31:37;;;;;;;7.50;3.22;;;;;;;;;;4912559;29;20099;-79
2023/02/11 04:34:03;;;;;;;7.05;5.03;;;;;;;;;;4912003;29;20205;-81
2023/02/11 04:36:29;;;;;;;10.32;4.28;;;;;;;;;;4912786;29;20118;-79
2023/02/11 04:38:55;;;;;;;6.05;4.40;;;;;;;;;;4912720;29;20051;-79
2023/02/11 04:41:21;;;;;;;7.78;6.07;;;;;;;;;;4912034;29;20039;-78
2023/02/11 04:43:47;;;;;;;4.10;3.70;;;;;;;;;;4912472;29;20040;-79
2023/02/11 04:46:13;;;;;;;7.70;4.40;;;;;;;;;;4913864;29;20041;-80
2023/02/11 04:48:39;;;;;;;10.63;4.82;;;;;;;;;;4903191;29;20132;-80
2023/02/11 04:51:05;;;;;;;4.55;4.10;;;;;;;;;;4911582;29;20795;-79
2023/02/11 04:53:31;;;;;;;5.38;4.85;;;;;;;;;;4895228;29;20067;-78
2023/02/11 04:55:57;;;;;;;5.35;4.90;;;;;;;;;;4895953;29;20134;-79
2023/02/11 04:58:23;;;;;;;8.57;4.25;;;;;;;;;;4910269;29;20325;-79
2023/02/11 05:00:49;;;;;;;6.38;3.83;;;;;;;;;;4912265;29;20142;-78
2023/02/11 05:03:15;;;;;;;4.65;4.25;;;;;;;;;;4902185;29;20459;-78
2023/02/11 05:05:41;;;;;;;3.75;3.45;;;;;;;;;;4894194;29;20063;-77
2023/02/11 05:08:07;;;;;;;5.25;4.18;;;;;;;;;;4911558;29;20750;-77
2023/02/11 05:10:33;;;;;;;4.60;4.03;;;;;;;;;;4904823;29;21735;-78
2023/02/11 05:12:59;;;;;;;8.98;3.05;;;;;;;;;;4894260;29;20401;-77
2023/02/11 05:15:25;;;;;;;11.13;5.03;;;;;;;;;;4912525;29;20135;-77
2023/02/11 05:17:51;;;;;;;4.03;3.25;;;;;;;;;;4911162;29;20039;-76
2023/02/11 05:20:17;;;;;;;8.90;5.47;;;;;;;;;;4911985;29;20533;-78
2023/02/11 05:22:43;;;;;;;5.35;3.60;;;;;;;;;;4911367;29;20038;-76
2023/02/11 05:25:09;;;;;;;6.40;5.18;;;;;;;;;;4911782;29;20040;-76
2023/02/11 05:27:35;;;;;;;11.73;5.13;;;;;;;;;;4911015;29;21919;-75
2023/02/11 05:30:01;;;;;;;9.75;6.25;;;;;;;;;;4908200;29;20517;-78
2023/02/11 05:32:29;;;;;;;10.23;4.95;;;;;;;;;;4906146;29;20147;-80
2023/02/11 05:34:54;;;;;;;4.40;4.00;;;;;;;;;;4909906;29;20058;-80
2023/02/11 05:37:20;;;;;;;8.48;3.90;;;;;;;;;;4908480;29;20039;-80
2023/02/11 05:39:47;;;;;;;10.77;5.28;;;;;;;;;;4882589;29;20036;-77
2023/02/11 05:42:13;;;;;;;8.75;5.55;;;;;;;;;;4899612;29;20067;-78
2023/02/11 05:44:39;;;;;;;10.57;5.68;;;;;;;;;;4909382;29;20042;-78
2023/02/11 05:47:07;;;;;;;8.90;5.55;;;;;;;;;;4909626;29;20035;-79
2023/02/11 05:49:33;;;;;;;7.50;4.97;;;;;;;;;;4909496;29;20032;-80
2023/02/11 05:51:59;;;;;;;7.45;3.88;;;;;;;;;;4908298;29;20051;-78
2023/02/11 05:54:25;;;;;;;11.57;5.68;;;;;;;;;;4909493;29;20040;-79
2023/02/11 05:56:52;;;;;;;6.95;6.00;;;;;;;;;;4908904;29;20098;-77
2023/02/11 05:59:19;;;;;;;4.72;4.30;;;;;;;;;;4908367;29;21557;-76
2023/02/11 06:01:45;;;;;;;5.20;4.68;;;;;;;;;;4891342;29;20032;-78
2023/02/11 06:04:13;;;;;;;9.10;5.75;;;;;;;;;;4909254;29;20042;-78
2023/02/11 06:06:39;;;;;;;6.05;5.00;;;;;;;;;;4912071;29;20035;-79
2023/02/11 06:09:05;;;;;;;6.63;5.97;;;;;;;;;;4908821;29;20103;-74
2023/02/11 06:11:31;;;;;;;7.45;5.05;;;;;;;;;;4909872;29;20134;-78
2023/02/11 06:13:57;;;;;;;6.90;4.70;;;;;;;;;;4907483;29;20783;-77
2023/02/11 06:16:23;;;;;;;7.15;6.05;;;;;;;;;;4894641;29;20035;-79
2023/02/11 06:18:49;;;;;;;10.82;6.18;;;;;;;;;;4910861;29;20040;-82
2023/02/11 06:21:16;;;;;;;7.22;5.63;;;;;;;;;;4894348;29;20313;-76
2023/02/11 06:23:42;;;;;;;5.40;4.43;;;;;;;;;;4903121;29;20686;-76
2023/02/11 06:26:08;;;;;;;6.43;4.63;;;;;;;;;;4909573;29;20036;-77
2023/02/11 06:28:34;;;;;;;7.97;5.15;;;;;;;;;;4889614;29;20173;-77
2023/02/11 06:31:05;;;;;;;10.25;5.80;;;;;;;;;;4895847;29;20423;-78
2023/02/11 06:33:31;;;;;;;8.83;6.20;;;;;;;;;;4879573;29;20154;-78
2023/02/11 06:35:57;;;;;;;5.40;4.30;;;;;;;;;;4926121;29;20503;-82
2023/02/11 06:38:24;;;;;;;8.32;5.32;;;;;;;;;;4922699;29;20031;-84
2023/02/11 06:40:50;;;;;;;8.50;5.07;;;;;;;;;;4936952;29;20084;-85
2023/02/11 06:43:16;;;;;;;5.45;4.47;;;;;;;;;;4927080;29;20035;-85
2023/02/11 06:45:42;;;;;;;5.68;4.22;;;;;;;;;;4909071;29;20070;-82
2023/02/11 06:48:08;;;;;;;7.63;6.40;;;;;;;;;;4916489;29;20118;-82
2023/02/11 06:50:34;;;;;;;6.82;4.90;;;;;;;;;;4917399;29;20754;-82
2023/02/11 06:53:01;;;;;;;7.05;4.55;;;;;;;;;;4914969;29;20359;-77
2023/02/11 06:55:27;;;;;;;5.45;4.22;;;;;;;;;;4914439;29;20161;-82
2023/02/11 06:57:53;;;;;;;4.35;3.95;;;;;;;;;;4911214;29;20059;-82
2023/02/11 07:00:19;;;;;;;5.50;4.80;;;;;;;;;;4912376;29;21737;-80
2023/02/11 07:02:45;;;;;;;6.00;5.50;;;;;;;;;;4879144;29;20131;-82
2023/02/11 07:05:11;;;;;;;5.05;4.65;;;;;;;;;;4914574;29;20132;-81
2023/02/11 07:07:37;;;;;;;6.38;5.47;;;;;;;;;;4913435;29;20039;-82
2023/02/11 07:10:04;;;;;;;6.97;5.95;;;;;;;;;;4899797;29;20059;-81
2023/02/11 07:12:30;;;;;;;6.85;5.20;;;;;;;;;;4918397;29;20042;-81
2023/02/11 07:14:56;;;;;;;5.75;5.05;;;;;;;;;;4912063;29;20094;-81
2023/02/11 07:17:22;;;;;;;9.82;5.45;;;;;;;;;;4911252;29;20043;-82
2023/02/11 07:19:49;;;;;;;8.10;4.18;;;;;;;;;;4881663;29;20799;-82
2023/02/11 07:22:15;;;;;;;7.03;4.93;;;;;;;;;;4921227;29;20043;-79
2023/02/11 07:24:41;;;;;;;9.05;6.63;;;;;;;;;;4925293;29;20038;-79
2023/02/11 07:27:07;;;;;;;4.80;4.40;;;;;;;;;;4907802;29;20817;-79
2023/02/11 07:29:33;;;;;;;7.53;6.25;;;;;;;;;;4923782;29;20051;-79
2023/02/11 07:31:59;;;;;;;3.15;2.95;;;;;;;;;;4924154;29;20043;-80
2023/02/11 07:34:25;;;;;;;8.80;5.13;;;;;;;;;;4923507;29;21593;-82
2023/02/11 07:36:51;;;;;;;7.70;5.63;;;;;;;;;;4917186;29;20134;-80
2023/02/11 07:39:18;;;;;;;5.57;5.05;;;;;;;;;;4898350;29;20094;-81
2023/02/11 07:41:46;;;;;;;7.35;4.90;;;;;;;;;;4919218;29;20098;-81
2023/02/11 07:44:12;;;;;;;8.95;6.50;;;;;;;;;;4919274;29;20639;-81
2023/02/11 07:46:41;;;;;;;6.20;5.60;;;;;;;;;;4917762;29;20051;-82
2023/02/11 07:49:08;;;;;;;5.72;5.10;;;;;;;;;;4917396;29;20031;-81
2023/02/11 07:51:34;;;;;;;8.05;5.10;;;;;;;;;;4912410;29;20048;-81
2023/02/11 07:54:00;;;;;;;6.43;4.72;;;;;;;;;;4917167;29;21482;-82
2023/02/11 07:56:26;;;;;;;5.70;5.05;;;;;;;;;;4913885;29;20035;-79
2023/02/11 07:58:52;;;;;;;8.20;5.82;;;;;;;;;;4911965;29;20047;-79
2023/02/11 08:01:21;;;;;;;7.10;4.90;;;;;;;;;;4893359;29;20166;-80
2023/02/11 08:03:47;;;;;;;7.25;5.80;;;;;;;;;;4910299;29;20119;-79
2023/02/11 08:06:14;;;;;;;8.38;6.80;;;;;;;;;;4904821;29;20035;-80
2023/02/11 08:08:40;;;;;;;11.38;7.00;;;;;;;;;;4910475;29;20028;-79
2023/02/11 08:11:16;;;;;;;10.75;7.05;;;;;;;;;;4911397;29;20050;-79
2023/02/11 08:13:43;;;;;;;10.07;6.63;;;;;;;;;;4910220;29;20035;-81
2023/02/11 08:16:09;;;;;;;8.85;6.68;;;;;;;;;;4912040;29;20399;-81
2023/02/11 08:18:35;;;;;;;8.63;6.47;;;;;;;;;;4909793;29;20059;-77
2023/02/11 08:21:05;;;;;;;7.22;5.72;;;;;;;;;;4910287;29;20036;-77
2023/02/11 08:23:31;;;;;;;9.52;3.97;;;;;;;;;;4892413;29;20645;-76
2023/02/11 08:26:03;;;;;;;10.30;5.60;;;;;;;;;;4909826;29;20054;-77
2023/02/11 08:28:29;;;;;;;7.75;6.47;;;;;;;;;;4894661;29;20042;-76
2023/02/11 08:30:55;;;;;;;7.88;6.75;;;;;;;;;;4916500;29;20383;-84
2023/02/11 08:33:21;;;;;;;8.02;5.50;;;;;;;;;;4933527;29;20056;-84
2023/02/11 08:35:48;;;;;;;6.38;4.78;;;;;;;;;;4922926;29;20046;-85
2023/02/11 08:38:14;;;;;;;8.98;6.97;;;;;;;;;;4941832;29;20083;-84
2023/02/11 08:40:39;;;;;;;7.63;5.03;;;;;;;;;;4935960;29;20028;-86
2023/02/11 08:43:05;;;;;;;11.13;5.57;;;;;;;;;;4931297;29;20416;-82
2023/02/11 08:45:31;;;;;;;9.65;6.63;;;;;;;;;;4904110;29;20388;-82
2023/02/11 08:47:57;;;;;;;7.03;4.80;;;;;;;;;;4918284;29;20048;-82
2023/02/11 08:50:24;;;;;;;10.07;6.57;;;;;;;;;;4935409;29;20869;-83
2023/02/11 08:52:51;;;;;;;7.43;5.60;;;;;;;;;;5257782;23;20072;-87
2023/02/11 08:55:17;;;;;;;6.38;5.05;;;;;;;;;;5028044;23;20124;-78
2023/02/11 08:57:44;;;;;;;12.90;8.93;;;;;;;;;;4976220;28;20175;-80
2023/02/11 09:00:10;;;;;;;8.70;6.80;;;;;;;;;;4988417;28;20112;-79
2023/02/11 09:02:36;;;;;;;13.35;7.85;;;;;;;;;;4986602;28;20030;-80
2023/02/11 09:05:03;;;;;;;6.63;5.43;;;;;;;;;;4986412;28;20068;-80
2023/02/11 09:07:29;;;;;;;6.07;5.50;;;;;;;;;;4988629;28;21613;-81
2023/02/11 09:09:55;;;;;;;7.13;5.28;;;;;;;;;;4989473;28;20207;-81
2023/02/11 09:12:20;;;;;;;8.27;6.97;;;;;;;;;;4971673;28;20045;-80
2023/02/11 09:14:47;;;;;;;8.63;6.43;;;;;;;;;;4988587;28;20042;-79
2023/02/11 09:17:13;;;;;;;10.52;6.38;;;;;;;;;;4978482;28;20081;-83
2023/02/11 09:19:39;;;;;;;9.18;7.07;;;;;;;;;;4988112;28;20044;-80
2023/02/11 09:22:04;;;;;;;15.45;8.55;;;;;;;;;;4961798;28;20038;-80
2023/02/11 09:24:30;;;;;;;7.07;4.95;;;;;;;;;;4962255;28;20493;-80
2023/02/11 09:26:56;;;;;;;8.13;6.47;;;;;;;;;;4991246;28;20033;-84
2023/02/11 09:29:22;;;;;;;10.75;6.65;;;;;;;;;;5005214;28;20121;-80
2023/02/11 09:31:49;;;;;;;14.98;8.18;;;;;;;;;;4981127;28;20676;-79
2023/02/11 09:34:15;;;;;;;8.82;6.88;;;;;;;;;;4976366;28;20556;-80
2023/02/11 09:36:41;;;;;;;11.95;9.10;;;;;;;;;;4961738;28;20060;-79
2023/02/11 09:39:14;;;;;;;12.23;8.13;;;;;;;;;;4975897;28;20030;-77
2023/02/11 09:41:40;;;;;;;7.40;4.85;;;;;;;;;;4959144;28;20627;-79
2023/02/11 09:44:06;;;;;;;9.55;8.50;;;;;;;;;;4976934;28;20062;-79
2023/02/11 09:46:37;;;;;;;9.82;6.95;;;;;;;;;;4960232;28;20039;-79
2023/02/11 09:49:03;;;;;;;10.93;8.23;;;;;;;;;;4979465;28;20085;-80
2023/02/11 09:51:38;;;;;;;16.50;8.93;;;;;;;;;;4977894;28;20364;-79
2023/02/11 09:54:06;;;;;;;7.63;6.78;;;;;;;;;;4977562;28;20050;-80
2023/02/11 09:56:32;;;;;;;10.55;6.38;;;;;;;;;;4977386;28;20042;-79
2023/02/11 09:58:58;;;;;;;9.23;6.10;;;;;;;;;;4982613;28;20045;-80
2023/02/11 10:01:30;;;;;;;7.82;6.35;;;;;;;;;;4981166;28;20487;-80
2023/02/11 10:04:01;;;;;;;11.32;6.70;;;;;;;;;;4982889;28;20113;-79
2023/02/11 10:06:45;;;;;;;11.18;7.40;;;;;;;;;;4965325;28;20145;-79
2023/02/11 10:09:21;;;;;;;13.07;6.65;;;;;;;;;;4985278;28;20342;-80
2023/02/11 10:11:47;;;;;;;5.88;5.38;;;;;;;;;;4955156;28;20076;-79
2023/02/11 10:14:15;;;;;;;8.10;5.47;;;;;;;;;;4985199;28;20090;-80
2023/02/11 10:16:54;;;;;;;16.23;7.97;;;;;;;;;;4968409;28;20195;-80
2023/02/11 10:19:25;;;;;;;8.23;5.88;;;;;;;;;;4984165;28;20080;-79
2023/02/11 10:21:51;;;;;;;9.77;7.40;;;;;;;;;;4983253;28;20038;-79
2023/02/11 10:24:17;;;;;;;6.07;5.35;;;;;;;;;;4983170;28;20062;-80
2023/02/11 10:26:44;;;;;;;12.32;6.13;;;;;;;;;;4964693;28;20132;-80
2023/02/11 10:29:30;;;;;;;9.95;6.65;;;;;;;;;;4983828;28;20038;-80
2023/02/11 10:31:57;;;;;;;10.57;7.78;;;;;;;;;;4968745;28;20192;-80
2023/02/11 10:34:23;;;;;;;8.45;5.32;;;;;;;;;;4938046;28;20046;-80
2023/02/11 10:36:49;;;;;;;11.50;7.35;;;;;;;;;;4985594;28;20125;-81
2023/02/11 10:39:16;;;;;;;12.45;6.68;;;;;;;;;;5001031;28;20101;-79
2023/02/11 10:41:44;;;;;;;13.85;5.75;;;;;;;;;;4985131;28;20026;-80
2023/02/11 10:44:36;;;;;;;8.52;6.22;;;;;;;;;;4996553;28;20046;-82
2023/02/11 10:47:13;;;;;;;12.50;9.63;;;;;;;;;;4973989;28;20137;-79
2023/02/11 10:49:43;;;;;;;11.90;6.88;;;;;;;;;;4991232;28;20097;-79
2023/02/11 10:52:16;;;;;;;7.20;5.78;;;;;;;;;;4977208;28;20049;-79
2023/02/11 10:54:58;;;;;;;5.43;4.93;;;;;;;;;;4992576;28;20141;-80
2023/02/11 10:57:41;;;;;;;11.23;7.60;;;;;;;;;;4987787;28;20042;-81
2023/02/11 11:00:27;;;;;;;8.85;6.05;;;;;;;;;;4970518;28;20061;-81
2023/02/11 11:02:55;;;;;;;7.18;6.32;;;;;;;;;;4989190;28;20042;-82
2023/02/11 11:05:26;;;;;;;7.95;5.53;;;;;;;;;;4981895;28;20168;-80
2023/02/11 11:07:54;;;;;;;11.30;7.53;;;;;;;;;;4962325;28;20146;-78
2023/02/11 11:10:27;;;;;;;10.35;7.70;;;;;;;;;;4962275;28;20124;-79
2023/02/11 11:12:54;;;;;;;8.60;6.22;;;;;;;;;;4966656;28;20040;-79
2023/02/11 11:15:26;;;;;;;11.63;6.18;;;;;;;;;;4983178;28;20657;-81
2023/02/11 11:18:08;;;;;;;7.63;4.80;;;;;;;;;;4981223;28;20708;-82
2023/02/11 11:20:35;;;;;;;8.32;6.22;;;;;;;;;;4993392;28;20045;-80
2023/02/11 11:23:09;;;;;;;11.52;6.72;;;;;;;;;;4984386;28;20033;-80
2023/02/11 11:25:36;;;;;;;9.43;5.90;;;;;;;;;;4980049;28;20508;-76
2023/02/11 11:28:02;;;;;;;12.25;7.30;;;;;;;;;;4963096;28;20037;-80
2023/02/11 11:30:38;;;;;;;10.98;7.53;;;;;;;;;;4979436;28;20511;-78
2023/02/11 11:33:12;;;;;;;14.20;7.18;;;;;;;;;;4984415;28;20046;-81
2023/02/11 11:35:39;;;;;;;14.07;7.85;;;;;;;;;;4987349;28;20318;-85
2023/02/11 11:38:05;;;;;;;9.35;7.55;;;;;;;;;;4966096;28;20048;-79
2023/02/11 11:40:32;;;;;;;10.95;6.88;;;;;;;;;;4980272;28;20038;-79
2023/02/11 11:43:17;;;;;;;11.60;7.03;;;;;;;;;;4985782;28;21737;-82
2023/02/11 11:45:54;;;;;;;8.35;6.65;;;;;;;;;;4997186;28;20877;-81
2023/02/11 11:48:21;;;;;;;10.15;8.45;;;;;;;;;;4980510;28;20038;-81
2023/02/11 11:50:57;;;;;;;11.15;9.93;;;;;;;;;;4982514;28;20038;-80
2023/02/11 11:53:27;;;;;;;7.68;6.13;;;;;;;;;;4986428;28;20050;-81
2023/02/11 11:56:02;;;;;;;10.75;7.47;;;;;;;;;;5004639;28;20034;-81
2023/02/11 11:58:28;;;;;;;12.88;7.95;;;;;;;;;;4989896;28;21975;-81
2023/02/11 12:00:57;;;;;;;9.60;6.22;;;;;;;;;;5007971;28;20034;-81
2023/02/11 12:03:22;;;;;;;13.65;7.00;;;;;;;;;;4992915;28;20034;-81
2023/02/11 12:05:57;;;;;;;11.88;8.20;;;;;;;;;;4986185;28;20093;-82
2023/02/11 12:08:42;;;;;;;10.98;8.30;;;;;;;;;;4981414;28;20038;-79
2023/02/11 12:11:14;;;;;;;10.07;5.88;;;;;;;;;;4960306;28;20057;-81
2023/02/11 12:13:56;;;;;;;10.07;5.68;;;;;;;;;;4963869;28;20034;-81
2023/02/11 12:16:25;;;;;;;6.40;5.82;;;;;;;;;;4984365;28;20420;-81
2023/02/11 12:18:58;;;;;;;10.30;8.30;;;;;;;;;;4981019;28;21892;-81
2023/02/11 12:21:33;;;;;;;11.38;7.43;;;;;;;;;;4964568;28;20045;-81
2023/02/11 12:24:07;;;;;;;9.30;7.80;;;;;;;;;;4981621;28;20042;-81
2023/02/11 12:26:36;;;;;;;8.13;7.28;;;;;;;;;;4961419;28;20046;-79
2023/02/11 12:29:11;;;;;;;8.48;6.25;;;;;;;;;;4978132;28;20045;-79
2023/02/11 12:31:47;;;;;;;6.68;5.72;;;;;;;;;;4977844;28;20060;-79
2023/02/11 12:34:32;;;;;;;9.02;7.32;;;;;;;;;;4979193;28;20053;-78
2023/02/11 12:36:58;;;;;;;8.25;6.70;;;;;;;;;;4977330;28;20038;-78
2023/02/11 12:39:35;;;;;;;10.23;8.63;;;;;;;;;;4978059;28;20654;-79
2023/02/11 12:44:58;;;;;;;9.80;6.78;;;;;;;;;;4959477;28;20053;-79
2023/02/11 12:47:38;;;;;;;11.32;7.53;;;;;;;;;;4961680;28;20040;-79
2023/02/11 12:50:16;;;;;;;15.77;10.13;;;;;;;;;;4964099;28;20394;-82
2023/02/11 12:52:54;;;;;;;11.50;7.93;;;;;;;;;;4983630;28;20037;-80
2023/02/11 12:55:20;;;;;;;15.00;8.55;;;;;;;;;;4982890;28;20054;-82
2023/02/11 12:57:46;;;;;;;8.65;6.90;;;;;;;;;;4991008;28;20567;-85
2023/02/11 13:00:17;;;;;;;10.30;8.10;;;;;;;;;;5020978;28;20041;-81
2023/02/11 13:02:45;;;;;;;10.98;5.97;;;;;;;;;;4990341;28;20014;-84
2023/02/11 13:05:25;;;;;;;15.05;8.45;;;;;;;;;;4997644;28;20049;-83
2023/02/11 13:07:52;;;;;;;13.55;10.65;;;;;;;;;;4993731;28;20404;-83
2023/02/11 13:10:29;;;;;;;9.65;6.93;;;;;;;;;;5010980;28;20425;-84
2023/02/11 13:15:41;;;;;;;13.88;9.15;;;;;;;;;;4979440;28;20034;-83
2023/02/11 13:18:16;;;;;;;12.40;7.65;;;;;;;;;;4986075;28;20030;-84
2023/02/11 13:20:45;;;;;;;12.48;9.02;;;;;;;;;;4991083;28;20184;-85
2023/02/11 13:23:14;;;;;;;13.82;7.82;;;;;;;;;;5000578;28;20041;-85
2023/02/11 13:25:42;;;;;;;9.95;7.22;;;;;;;;;;5000150;28;20062;-85
2023/02/11 13:28:16;;;;;;;14.63;8.60;;;;;;;;;;5004737;28;20019;-86
2023/02/11 13:30:46;;;;;;;12.20;8.55;;;;;;;;;;5004751;28;20115;-85
2023/02/11 13:33:16;;;;;;;13.10;7.38;;;;;;;;;;5008807;28;20049;-82
2023/02/11 13:36:05;;;;;;;11.30;7.97;;;;;;;;;;5006995;28;20120;-83
2023/02/11 13:38:31;;;;;;;15.30;8.95;;;;;;;;;;5004279;28;20069;-84
2023/02/11 13:41:16;;;;;;;14.70;9.38;;;;;;;;;;5001163;28;20057;-86
2023/02/11 13:43:42;;;;;;;14.70;8.50;;;;;;;;;;5007882;28;20384;-83
2023/02/11 13:46:09;;;;;;;7.57;5.75;;;;;;;;;;4999623;28;20203;-83
2023/02/11 13:48:37;;;;;;;13.55;8.38;;;;;;;;;;4984761;28;20114;-80
2023/02/11 13:51:07;;;;;;;12.82;9.05;;;;;;;;;;4963955;28;20115;-81
2023/02/11 13:54:03;;;;;;;19.50;11.73;;;;;;;;;;4976150;28;20721;-81
2023/02/11 13:56:35;;;;;;;15.15;7.20;;;;;;;;;;4984031;28;20285;-82
2023/02/11 13:59:05;;;;;;;13.88;8.85;;;;;;;;;;4997434;28;20496;-84
2023/02/11 14:01:41;;;;;;;15.40;9.77;;;;;;;;;;5018224;28;20085;-84
2023/02/11 14:10:35;;;;;;;9.07;6.60;;;;;;;;;;5016817;28;20034;-82
2023/02/11 14:13:20;;;;;;;18.55;9.75;;;;;;;;;;4964890;28;20052;-81
2023/02/11 14:15:46;;;;;;;21.40;9.10;;;;;;;;;;4987798;28;20045;-82
2023/02/11 14:18:30;;;;;;;16.88;9.40;;;;;;;;;;4985088;28;20579;-80
2023/02/11 14:21:27;;;;;;;14.20;8.80;;;;;;;;;;4972919;28;20045;-80
2023/02/11 14:24:14;;;;;;;13.45;8.48;;;;;;;;;;4957439;28;20391;-80
2023/02/11 14:26:43;;;;;;;16.13;8.38;;;;;;;;;;4991914;28;20048;-82
2023/02/11 14:29:13;;;;;;;12.25;8.20;;;;;;;;;;5000325;28;20820;-83
2023/02/11 14:31:43;;;;;;;18.60;9.60;;;;;;;;;;5002380;28;20103;-82
2023/02/11 14:34:14;;;;;;;17.13;8.35;;;;;;;;;;4988866;28;20029;-83
2023/02/11 14:36:45;;;;;;;19.00;9.35;;;;;;;;;;4984957;28;20034;-82
2023/02/11 14:39:17;;;;;;;16.08;9.70;;;;;;;;;;4991697;28;20031;-83
2023/02/11 14:44:33;;;;;;;17.40;8.98;;;;;;;;;;4928484;29;20055;-81
2023/02/11 14:46:59;;;;;;;15.10;8.85;;;;;;;;;;4954605;28;20043;-83
2023/02/11 14:49:30;;;;;;;18.42;8.65;;;;;;;;;;4935410;29;20032;-81
2023/02/11 14:51:57;;;;;;;17.43;10.63;;;;;;;;;;4898938;29;20044;-82
2023/02/11 14:54:24;;;;;;;12.38;7.07;;;;;;;;;;4893524;29;20298;-80
2023/02/11 14:57:10;;;;;;;18.40;10.82;;;;;;;;;;4893211;29;20038;-80
2023/02/11 14:59:37;;;;;;;16.60;9.32;;;;;;;;;;4911534;29;20043;-80
2023/02/11 15:02:24;;;;;;;26.38;9.45;;;;;;;;;;4899581;29;20051;-80
2023/02/11 15:04:51;;;;;;;14.38;8.10;;;;;;;;;;4898647;29;20084;-81
2023/02/11 15:07:17;;;;;;;22.40;10.45;;;;;;;;;;4915426;29;20044;-81